Time;durP1;ratioP1;P1;durP2;ratioP2;P2;SDS_P1;SDS_P2;PMS_P1;PMS_P2;Temp;Humidity;BMP_temperature;BMP_pressure;BME280_temperature;BME280_humidity;BME280_pressure;Samples;Min_cycle;Max_cycle;Signal;HPM_P1;HPM_P2
2024/02/27 00:00:19;;;;;;;9.07;4.20;;;;;;;8.09;67.13;101804.03;5054011;28;20078;-45
2024/02/27 00:02:44;;;;;;;8.50;3.78;;;;;;;7.92;67.82;101809.41;5031918;28;20032;-49
2024/02/27 00:05:09;;;;;;;6.30;3.92;;;;;;;8.42;65.83;101812.22;5049786;28;20029;-45
2024/02/27 00:07:34;;;;;;;6.80;4.05;;;;;;;8.37;65.63;101811.19;5049900;28;20036;-47
2024/02/27 00:10:00;;;;;;;8.25;4.10;;;;;;;8.13;65.71;101812.81;5047870;28;20032;-44
2024/02/27 00:12:25;;;;;;;10.18;4.38;;;;;;;8.41;65.91;101823.47;5049586;28;20037;-46
2024/02/27 00:14:52;;;;;;;7.45;4.20;;;;;;;8.22;65.70;101823.56;5050364;28;20116;-46
2024/02/27 00:17:18;;;;;;;8.30;4.20;;;;;;;8.36;66.03;101819.78;5034469;28;20047;-46
2024/02/27 00:19:43;;;;;;;8.70;4.55;;;;;;;8.23;66.08;101822.75;5050715;28;20033;-47
2024/02/27 00:22:08;;;;;;;10.75;4.18;;;;;;;8.28;65.34;101830.72;5036219;28;20398;-45
2024/02/27 00:24:34;;;;;;;7.82;4.13;;;;;;;8.22;65.27;101831.38;5054570;28;20372;-47
2024/02/27 00:26:59;;;;;;;6.82;3.83;;;;;;;8.13;65.74;101834.47;5053138;28;20033;-44
2024/02/27 00:29:25;;;;;;;8.23;4.07;;;;;;;8.09;65.79;101843.00;5035494;28;20039;-47
2024/02/27 00:31:50;;;;;;;6.93;3.75;;;;;;;8.10;65.62;101847.38;5052484;28;20115;-46
2024/02/27 00:34:15;;;;;;;7.85;4.20;;;;;;;7.99;66.24;101848.63;5052239;28;20056;-46
2024/02/27 00:36:41;;;;;;;9.73;4.22;;;;;;;7.92;66.04;101841.47;5052742;28;20267;-45
2024/02/27 00:39:06;;;;;;;6.95;3.88;;;;;;;7.89;66.91;101836.13;5035444;28;20125;-49
2024/02/27 00:41:38;;;;;;;9.18;3.97;;;;;;;7.98;66.17;101840.81;5052603;28;20057;-45
2024/02/27 00:44:05;;;;;;;7.47;3.83;;;;;;;7.81;67.00;101834.94;5034933;28;20178;-46
2024/02/27 00:46:31;;;;;;;8.25;3.92;;;;;;;7.82;66.70;101838.41;5053148;28;20037;-45
2024/02/27 00:48:56;;;;;;;9.70;3.90;;;;;;;7.73;67.60;101834.66;5034945;28;20091;-46
2024/02/27 00:51:21;;;;;;;9.88;4.30;;;;;;;7.54;68.07;101837.31;5018893;28;20415;-47
2024/02/27 00:53:47;;;;;;;7.93;4.20;;;;;;;7.70;67.65;101842.28;5053340;28;20052;-47
2024/02/27 00:56:12;;;;;;;7.13;4.18;;;;;;;7.56;69.08;101840.84;5035500;28;20043;-44
2024/02/27 00:58:37;;;;;;;8.38;4.13;;;;;;;7.82;67.87;101836.72;5052380;28;20487;-46
2024/02/27 01:01:03;;;;;;;8.82;4.20;;;;;;;7.61;68.54;101843.66;5034723;28;20086;-48
2024/02/27 01:03:28;;;;;;;8.02;3.90;;;;;;;7.65;68.01;101843.81;5053078;28;20123;-44
2024/02/27 01:05:54;;;;;;;7.70;4.03;;;;;;;7.50;68.50;101838.00;5052285;28;20037;-47
2024/02/27 01:08:19;;;;;;;8.18;3.97;;;;;;;7.56;68.13;101840.84;5052467;28;20483;-45
2024/02/27 01:10:44;;;;;;;7.32;4.07;;;;;;;7.63;67.88;101840.28;5053667;28;20029;-46
2024/02/27 01:13:10;;;;;;;8.75;4.03;;;;;;;7.87;67.12;101837.78;5053459;28;20044;-46
2024/02/27 01:15:35;;;;;;;8.75;4.10;;;;;;;7.46;68.62;101843.00;5054560;28;20052;-46
2024/02/27 01:18:00;;;;;;;9.77;4.00;;;;;;;7.47;68.29;101843.06;5035957;28;20047;-46
2024/02/27 01:20:26;;;;;;;8.40;4.20;;;;;;;7.40;69.13;101848.81;5035950;28;20045;-48
2024/02/27 01:22:51;;;;;;;8.57;4.20;;;;;;;7.37;69.45;101853.00;5052488;28;20057;-47
2024/02/27 01:25:17;;;;;;;9.88;4.43;;;;;;;7.45;68.92;101852.50;5053102;28;20036;-47
2024/02/27 01:27:43;;;;;;;9.60;4.25;;;;;;;7.38;69.34;101859.97;5050943;28;20490;-48
2024/02/27 01:30:09;;;;;;;8.82;4.22;;;;;;;7.64;68.28;101861.91;5052541;28;20037;-46
2024/02/27 01:32:35;;;;;;;10.60;4.45;;;;;;;7.42;68.29;101862.75;5051048;28;20111;-47
2024/02/27 01:35:00;;;;;;;9.60;4.10;;;;;;;7.55;68.77;101861.56;5050836;28;20360;-46
2024/02/27 01:37:26;;;;;;;7.07;3.90;;;;;;;7.60;68.04;101870.41;5052327;28;20106;-49
2024/02/27 01:39:51;;;;;;;8.43;4.35;;;;;;;7.53;68.70;101873.56;5051732;28;20037;-45
2024/02/27 01:42:16;;;;;;;7.10;4.20;;;;;;;7.57;68.67;101868.56;5051965;28;20037;-46
2024/02/27 01:44:51;;;;;;;7.43;4.45;;;;;;;7.54;68.60;101870.16;5051715;28;20041;-44
2024/02/27 01:47:18;;;;;;;10.60;4.10;;;;;;;7.43;68.72;101874.03;5051516;28;20068;-44
2024/02/27 01:49:43;;;;;;;8.23;4.00;;;;;;;7.50;68.87;101868.28;5034341;28;20190;-46
2024/02/27 01:52:11;;;;;;;8.13;4.30;;;;;;;7.32;69.31;101866.66;5051819;28;20115;-50
2024/02/27 01:54:36;;;;;;;8.63;4.03;;;;;;;7.50;68.74;101871.72;5050152;28;20523;-45
2024/02/27 01:57:04;;;;;;;8.88;3.80;;;;;;;7.45;68.98;101872.34;5052004;28;20036;-45
2024/02/27 01:59:30;;;;;;;8.02;3.95;;;;;;;7.39;68.88;101885.06;5051780;28;20040;-46
2024/02/27 02:01:55;;;;;;;7.82;3.95;;;;;;;7.41;68.13;101879.16;5050706;28;20125;-47
2024/02/27 02:04:21;;;;;;;6.72;3.83;;;;;;;7.29;69.01;101886.41;5050335;28;20498;-45
2024/02/27 02:06:46;;;;;;;8.45;3.90;;;;;;;7.21;69.28;101878.28;5049657;28;20491;-46
2024/02/27 02:09:12;;;;;;;8.13;4.10;;;;;;;7.28;69.30;101882.94;5050483;28;20273;-47
2024/02/27 02:11:40;;;;;;;11.02;4.18;;;;;;;7.25;69.35;101884.50;5032998;28;20119;-45
2024/02/27 02:14:05;;;;;;;6.45;3.63;;;;;;;7.40;68.98;101885.16;5050420;28;20394;-46
2024/02/27 02:16:31;;;;;;;9.18;4.25;;;;;;;7.49;68.58;101882.94;5051276;28;20132;-47
2024/02/27 02:18:56;;;;;;;7.88;4.20;;;;;;;7.52;68.35;101889.97;5050611;28;20430;-46
2024/02/27 02:21:21;;;;;;;7.72;3.97;;;;;;;7.65;67.62;101887.06;5051439;28;20458;-46
2024/02/27 02:23:47;;;;;;;12.10;4.00;;;;;;;7.40;68.36;101897.22;5034259;28;20029;-47
2024/02/27 02:26:13;;;;;;;10.10;4.00;;;;;;;7.43;68.48;101897.38;5049941;28;20037;-47
2024/02/27 02:28:39;;;;;;;10.50;3.63;;;;;;;7.22;69.50;101895.63;5050563;28;20395;-48
2024/02/27 02:31:04;;;;;;;9.40;4.07;;;;;;;7.27;69.01;101901.91;5049424;28;20099;-45
2024/02/27 02:33:29;;;;;;;10.80;3.70;;;;;;;7.29;69.39;101896.78;5049520;28;20041;-47
2024/02/27 02:35:55;;;;;;;7.82;4.10;;;;;;;7.36;68.95;101895.34;5049111;28;20041;-45
2024/02/27 02:38:20;;;;;;;7.22;3.75;;;;;;;7.41;68.81;101899.91;5049979;28;20029;-47
2024/02/27 02:40:45;;;;;;;9.20;3.80;;;;;;;7.34;69.33;101892.66;5049940;28;20120;-46
2024/02/27 02:43:11;;;;;;;6.22;3.50;;;;;;;7.54;68.40;101888.31;5049200;28;20029;-45
2024/02/27 02:45:37;;;;;;;8.75;3.42;;;;;;;7.10;70.20;101889.03;5049413;28;20037;-46
2024/02/27 02:48:03;;;;;;;8.05;3.70;;;;;;;7.05;70.65;101898.31;5032882;28;20028;-46
2024/02/27 02:50:30;;;;;;;9.43;3.80;;;;;;;7.43;69.88;101892.19;5050498;28;20052;-46
2024/02/27 02:52:56;;;;;;;5.85;3.08;;;;;;;7.35;69.67;101881.47;5050539;28;20041;-45
2024/02/27 02:55:21;;;;;;;8.00;3.40;;;;;;;7.33;69.57;101884.00;5049604;28;20037;-45
2024/02/27 02:57:47;;;;;;;7.18;3.75;;;;;;;7.42;69.65;101883.50;5049211;28;20044;-48
2024/02/27 03:00:12;;;;;;;7.50;3.60;;;;;;;7.28;69.97;101882.94;5050964;28;20506;-47
2024/02/27 03:02:38;;;;;;;8.30;3.55;;;;;;;7.44;69.39;101881.00;5049889;28;20045;-46
2024/02/27 03:05:05;;;;;;;7.80;3.47;;;;;;;7.29;70.42;101894.19;5034199;28;20041;-46
2024/02/27 03:07:30;;;;;;;10.75;3.78;;;;;;;7.35;70.03;101894.44;5056279;28;20043;-48
2024/02/27 03:09:56;;;;;;;11.48;4.00;;;;;;;7.26;70.43;101904.41;5040992;28;20045;-47
2024/02/27 03:12:23;;;;;;;7.47;3.35;;;;;;;7.28;69.67;101903.69;5040289;28;20139;-45
2024/02/27 03:14:48;;;;;;;8.27;3.45;;;;;;;7.49;69.88;101901.13;5052132;28;20041;-46
2024/02/27 03:17:14;;;;;;;7.82;3.35;;;;;;;7.37;69.65;101905.78;5051150;28;20036;-46
2024/02/27 03:19:41;;;;;;;7.13;3.30;;;;;;;7.17;70.35;101904.94;5049144;28;20112;-45
2024/02/27 03:22:06;;;;;;;8.57;3.58;;;;;;;7.41;69.59;101905.09;5047560;28;20040;-45
2024/02/27 03:24:32;;;;;;;7.18;3.33;;;;;;;7.37;69.47;101905.78;5050691;28;20029;-45
2024/02/27 03:26:57;;;;;;;7.85;3.33;;;;;;;7.41;69.02;101907.69;5050213;28;20493;-45
2024/02/27 03:29:23;;;;;;;6.53;3.67;;;;;;;7.38;68.90;101906.69;5050412;28;20052;-47
2024/02/27 03:31:48;;;;;;;8.85;3.28;;;;;;;7.18;69.16;101906.69;5048362;28;20177;-45
2024/02/27 03:34:13;;;;;;;6.97;3.55;;;;;;;7.33;68.87;101907.34;5032902;28;20033;-46
2024/02/27 03:36:40;;;;;;;9.25;3.53;;;;;;;7.42;68.48;101906.88;5050257;28;20032;-46
2024/02/27 03:39:05;;;;;;;7.68;3.42;;;;;;;7.27;68.49;101908.78;5049795;28;20067;-45
2024/02/27 03:41:30;;;;;;;7.13;3.40;;;;;;;6.97;70.32;101913.53;5049504;28;20060;-45
2024/02/27 03:43:56;;;;;;;8.35;3.50;;;;;;;7.22;69.58;101918.09;5048148;28;20111;-45
2024/02/27 03:46:21;;;;;;;8.55;3.42;;;;;;;7.19;69.83;101923.16;5049971;28;20044;-46
2024/02/27 03:48:47;;;;;;;10.48;3.60;;;;;;;6.96;70.40;101932.47;5048072;28;20029;-47
2024/02/27 03:51:12;;;;;;;8.35;3.28;;;;;;;7.09;69.39;101929.63;5050138;28;20040;-46
2024/02/27 03:53:38;;;;;;;8.70;3.58;;;;;;;7.39;68.59;101931.78;5015808;28;20029;-50
2024/02/27 03:56:05;;;;;;;6.70;3.38;;;;;;;7.34;68.38;101932.47;5049594;28;20503;-45
2024/02/27 03:58:31;;;;;;;9.88;3.72;;;;;;;7.25;68.63;101929.50;5050993;28;20037;-46
2024/02/27 04:00:56;;;;;;;9.85;3.38;;;;;;;7.12;68.44;101937.56;5046916;28;20036;-45
2024/02/27 04:03:21;;;;;;;8.77;3.40;;;;;;;7.20;68.66;101941.34;5049894;28;20086;-44
2024/02/27 04:05:47;;;;;;;10.68;3.90;;;;;;;7.33;68.37;101935.88;5031765;28;20111;-46
2024/02/27 04:08:12;;;;;;;8.75;3.50;;;;;;;7.02;69.18;101943.13;5050205;28;20072;-46
2024/02/27 04:10:38;;;;;;;8.60;3.63;;;;;;;6.83;70.06;101956.09;5048782;28;20033;-46
2024/02/27 04:13:04;;;;;;;10.05;4.20;;;;;;;6.92;69.59;101947.03;5049723;28;20033;-47
2024/02/27 04:15:29;;;;;;;9.32;3.67;;;;;;;7.08;69.57;101958.06;5048370;28;20037;-46
2024/02/27 04:17:55;;;;;;;8.38;3.30;;;;;;;7.13;69.39;101956.59;5032159;28;20041;-45
2024/02/27 04:20:21;;;;;;;10.13;3.83;;;;;;;7.10;69.69;101962.53;5050605;28;20043;-48
2024/02/27 04:22:47;;;;;;;8.25;3.58;;;;;;;6.84;70.45;101955.25;5031461;28;20542;-45
2024/02/27 04:25:12;;;;;;;8.20;3.88;;;;;;;6.87;70.11;101963.19;5048114;28;20036;-47
2024/02/27 04:27:38;;;;;;;8.38;3.70;;;;;;;7.01;69.27;101974.19;5047827;28;20036;-48
2024/02/27 04:30:05;;;;;;;7.45;3.78;;;;;;;7.02;69.65;101976.84;5048234;28;20084;-45
2024/02/27 04:32:30;;;;;;;6.78;3.40;;;;;;;6.98;69.30;101981.81;5032384;28;20060;-44
2024/02/27 04:34:56;;;;;;;9.88;3.80;;;;;;;7.21;68.32;101982.03;5048061;28;20071;-49
2024/02/27 04:37:21;;;;;;;10.07;3.50;;;;;;;7.13;68.51;101987.72;5048054;28;20040;-47
2024/02/27 04:39:47;;;;;;;5.72;3.20;;;;;;;7.19;67.57;101988.88;5048582;28;20037;-48
2024/02/27 04:42:12;;;;;;;8.60;3.50;;;;;;;7.17;67.49;101985.31;5048994;28;20060;-45
2024/02/27 04:44:37;;;;;;;9.57;3.50;;;;;;;6.98;68.70;101989.59;5048640;28;20045;-47
2024/02/27 04:47:04;;;;;;;9.32;3.47;;;;;;;6.97;69.04;101993.00;5048358;28;20047;-45
2024/02/27 04:49:30;;;;;;;8.43;3.28;;;;;;;6.97;68.87;101988.72;5049107;28;20029;-45
2024/02/27 04:51:55;;;;;;;8.45;3.50;;;;;;;7.01;68.40;101990.66;5048398;28;20044;-49
2024/02/27 04:54:21;;;;;;;9.48;3.38;;;;;;;6.98;68.63;101992.19;5050376;28;20033;-46
2024/02/27 04:56:46;;;;;;;7.22;3.22;;;;;;;6.96;68.79;101994.72;5048948;28;20044;-45
2024/02/27 04:59:11;;;;;;;7.50;3.42;;;;;;;7.04;68.29;102001.13;5049080;28;20029;-45
2024/02/27 05:01:37;;;;;;;5.75;3.03;;;;;;;6.82;68.60;102003.56;5048387;28;20037;-47
2024/02/27 05:04:03;;;;;;;6.88;3.63;;;;;;;6.95;68.53;102010.22;5049028;28;20066;-45
2024/02/27 05:06:28;;;;;;;10.60;3.67;;;;;;;6.95;68.65;102010.22;5048963;28;20036;-47
2024/02/27 05:08:54;;;;;;;8.80;3.50;;;;;;;7.00;68.16;102007.00;5051182;28;20131;-46
2024/02/27 05:11:19;;;;;;;7.50;3.50;;;;;;;7.03;67.97;102008.84;5050927;28;20064;-45
2024/02/27 05:13:44;;;;;;;9.20;3.90;;;;;;;6.96;68.64;102007.66;5051007;28;20033;-48
2024/02/27 05:16:10;;;;;;;11.80;4.18;;;;;;;6.77;68.40;102007.66;5052699;28;20158;-46
2024/02/27 05:18:35;;;;;;;8.38;3.30;;;;;;;6.75;69.15;102011.88;5052435;28;20407;-45
2024/02/27 05:21:04;;;;;;;8.10;3.63;;;;;;;6.81;68.85;102009.56;5051290;28;20025;-45
2024/02/27 05:23:29;;;;;;;8.32;3.70;;;;;;;6.82;68.55;102016.53;5052700;28;20510;-46
2024/02/27 05:25:55;;;;;;;10.90;4.13;;;;;;;6.68;69.61;102015.00;5052290;28;20033;-45
2024/02/27 05:28:20;;;;;;;12.07;4.38;;;;;;;6.84;69.03;102009.69;5035059;28;20119;-46
2024/02/27 05:30:46;;;;;;;8.77;3.70;;;;;;;6.59;70.19;102012.84;5051037;28;20025;-47
2024/02/27 05:33:11;;;;;;;7.13;3.95;;;;;;;6.89;69.63;102013.41;5034627;28;20191;-48
2024/02/27 05:35:36;;;;;;;8.75;4.13;;;;;;;6.75;70.52;102014.47;5034246;28;20040;-48
2024/02/27 05:38:02;;;;;;;9.93;4.20;;;;;;;6.84;70.76;102013.19;5035330;28;20037;-47
2024/02/27 05:40:27;;;;;;;9.57;4.03;;;;;;;6.62;71.25;102010.41;5052029;28;20036;-46
2024/02/27 05:42:53;;;;;;;10.43;4.00;;;;;;;6.84;70.14;102015.78;5052271;28;20036;-47
2024/02/27 05:45:18;;;;;;;9.57;4.53;;;;;;;7.00;70.12;102000.94;5034282;28;20059;-47
2024/02/27 05:47:44;;;;;;;12.35;4.70;;;;;;;6.92;69.96;101998.88;5051591;28;20033;-47
2024/02/27 05:50:09;;;;;;;9.48;4.32;;;;;;;7.09;69.68;101999.63;5051903;28;20052;-45
2024/02/27 05:52:35;;;;;;;11.10;4.60;;;;;;;6.88;69.98;101999.56;5051716;28;20530;-48
2024/02/27 05:55:00;;;;;;;8.23;3.95;;;;;;;6.98;69.26;102000.84;5051292;28;20351;-44
2024/02/27 05:57:25;;;;;;;7.60;4.18;;;;;;;6.79;70.37;101993.94;5049615;28;20036;-46
2024/02/27 05:59:51;;;;;;;7.50;4.15;;;;;;;6.90;69.74;101992.72;5052672;28;20041;-46
2024/02/27 06:02:16;;;;;;;12.13;4.50;;;;;;;6.93;69.93;101995.47;5052163;28;20087;-45
2024/02/27 06:04:41;;;;;;;10.00;4.85;;;;;;;6.76;70.24;101998.09;5051396;28;20032;-46
2024/02/27 06:07:08;;;;;;;9.07;4.80;;;;;;;6.79;70.57;101987.88;5052097;28;20063;-46
2024/02/27 06:09:34;;;;;;;11.85;4.63;;;;;;;6.69;70.97;101990.84;5051513;28;20052;-46
2024/02/27 06:12:00;;;;;;;14.23;4.85;;;;;;;6.67;70.52;101984.72;5032478;28;20116;-47
2024/02/27 06:14:25;;;;;;;9.88;5.30;;;;;;;6.70;70.47;101985.75;5033240;28;20132;-47
2024/02/27 06:16:51;;;;;;;10.40;4.70;;;;;;;6.65;70.61;101981.19;5051129;28;20063;-44
2024/02/27 06:19:19;;;;;;;9.38;4.72;;;;;;;6.63;70.93;101983.69;5051140;28;20326;-48
2024/02/27 06:24:29;;;;;;;9.15;4.70;;;;;;;6.72;70.33;101996.16;5051614;28;20537;-48
2024/02/27 06:26:55;;;;;;;10.13;4.50;;;;;;;6.64;70.35;102005.31;5050920;28;20036;-46
2024/02/27 06:29:20;;;;;;;11.43;4.90;;;;;;;6.70;70.10;102003.91;5051136;28;20041;-48
2024/02/27 06:31:45;;;;;;;17.55;4.85;;;;;;;6.67;69.75;102000.25;5032005;28;20036;-44
2024/02/27 06:34:11;;;;;;;13.68;5.03;;;;;;;6.55;69.88;102007.44;5050658;28;20380;-45
2024/02/27 06:36:36;;;;;;;11.35;4.57;;;;;;;6.48;70.53;102012.34;5050309;28;20045;-46
2024/02/27 06:39:01;;;;;;;10.45;4.97;;;;;;;6.49;71.21;102015.81;5053002;28;20033;-45
2024/02/27 06:41:27;;;;;;;11.50;5.03;;;;;;;6.56;70.53;102019.59;5051670;28;20123;-49
2024/02/27 06:43:52;;;;;;;11.48;5.00;;;;;;;6.65;70.24;102027.81;5051277;28;20033;-44
2024/02/27 06:46:18;;;;;;;11.00;4.75;;;;;;;6.71;70.21;102038.47;5052441;28;20526;-46
2024/02/27 06:48:43;;;;;;;12.27;4.95;;;;;;;6.79;69.68;102034.53;5051975;28;20036;-45
2024/02/27 06:51:09;;;;;;;12.10;4.97;;;;;;;6.74;69.55;102043.78;5051962;28;20325;-48
2024/02/27 06:53:35;;;;;;;10.45;5.15;;;;;;;6.72;69.91;102043.72;5034507;28;20479;-45
2024/02/27 06:56:01;;;;;;;11.10;5.15;;;;;;;6.89;69.40;102049.72;5035196;28;20579;-46
2024/02/27 06:58:27;;;;;;;10.90;5.47;;;;;;;6.93;69.42;102055.09;5057493;28;20052;-46
2024/02/27 07:00:52;;;;;;;12.57;5.97;;;;;;;6.90;69.62;102049.75;5053042;28;20024;-45
2024/02/27 07:03:18;;;;;;;10.90;5.35;;;;;;;7.00;69.65;102055.38;5052865;28;20029;-46
2024/02/27 07:05:43;;;;;;;13.20;5.32;;;;;;;6.96;69.72;102061.22;5043951;28;20125;-47
2024/02/27 07:08:11;;;;;;;11.55;5.25;;;;;;;6.99;69.65;102063.97;5060969;28;20111;-47
2024/02/27 07:10:40;;;;;;;14.73;6.03;;;;;;;7.10;71.12;102057.56;5058363;28;20033;-45
2024/02/27 07:13:09;;;;;;;12.63;5.55;;;;;;;7.47;71.76;102055.84;5050451;28;20047;-45
2024/02/27 07:15:34;;;;;;;16.38;5.70;;;;;;;7.80;69.35;102056.44;5032852;28;20036;-47
2024/02/27 07:18:02;;;;;;;13.95;5.40;;;;;;;8.11;68.50;102056.03;5050650;28;20045;-44
2024/02/27 07:20:29;;;;;;;15.55;6.22;;;;;;;8.17;66.80;102065.78;5032233;28;20033;-45
2024/02/27 07:22:55;;;;;;;9.60;5.35;;;;;;;7.98;67.08;102070.22;5031766;28;20037;-46
2024/02/27 07:25:20;;;;;;;12.38;5.75;;;;;;;7.96;66.92;102073.56;5049093;28;20037;-44
2024/02/27 07:27:48;;;;;;;12.80;5.53;;;;;;;7.77;67.66;102081.34;5048623;28;20494;-45
2024/02/27 07:30:14;;;;;;;12.95;5.82;;;;;;;7.84;68.10;102089.50;5051209;28;20053;-48
2024/02/27 07:32:39;;;;;;;13.27;6.20;;;;;;;7.88;67.75;102099.19;5033572;28;20043;-46
2024/02/27 07:35:07;;;;;;;12.63;5.85;;;;;;;7.63;68.83;102098.91;5050666;28;20132;-45
2024/02/27 07:37:33;;;;;;;15.95;6.68;;;;;;;7.74;68.71;102105.50;5050520;28;20057;-45
2024/02/27 07:39:58;;;;;;;15.30;6.05;;;;;;;8.11;68.61;102095.84;5049562;28;20416;-45
2024/02/27 07:42:23;;;;;;;14.68;5.97;;;;;;;8.23;68.10;102092.91;5049481;28;20036;-47
2024/02/27 07:44:49;;;;;;;14.18;6.28;;;;;;;8.23;67.94;102095.53;5048954;28;20037;-46
2024/02/27 07:47:14;;;;;;;13.25;5.88;;;;;;;8.61;66.55;102091.91;5049814;28;20024;-46
2024/02/27 07:49:45;;;;;;;12.20;6.32;;;;;;;8.45;66.72;102089.53;5031353;28;20033;-45
2024/02/27 07:52:10;;;;;;;13.13;6.47;;;;;;;8.48;66.70;102093.13;5049795;28;20036;-46
2024/02/27 07:54:35;;;;;;;13.07;6.70;;;;;;;8.47;66.82;102082.69;5049160;28;20628;-47
2024/02/27 07:57:01;;;;;;;13.07;6.82;;;;;;;8.53;67.00;102078.63;5049629;28;20041;-46
2024/02/27 07:59:26;;;;;;;14.38;6.78;;;;;;;8.66;66.30;102073.94;5049438;28;20029;-45
2024/02/27 08:01:51;;;;;;;14.98;6.85;;;;;;;8.51;67.39;102084.56;5030927;28;20128;-47
2024/02/27 08:04:17;;;;;;;13.65;6.93;;;;;;;8.55;67.27;102076.06;5031989;28;20037;-45
2024/02/27 08:06:43;;;;;;;14.95;6.97;;;;;;;8.77;67.05;102072.63;5048886;28;20064;-46
2024/02/27 08:09:09;;;;;;;16.35;7.13;;;;;;;8.84;66.81;102070.31;5048497;28;20389;-47
2024/02/27 08:11:34;;;;;;;14.93;6.93;;;;;;;8.85;67.25;102072.09;5049072;28;20056;-44
2024/02/27 08:14:01;;;;;;;17.02;6.82;;;;;;;8.88;67.24;102072.22;5031056;28;20052;-47
2024/02/27 08:16:27;;;;;;;13.23;6.68;;;;;;;8.77;67.69;102070.03;5049752;28;20033;-45
2024/02/27 08:18:52;;;;;;;16.70;7.20;;;;;;;9.03;67.06;102060.63;5048813;28;20037;-44
2024/02/27 08:21:17;;;;;;;17.17;7.53;;;;;;;9.09;66.87;102064.34;5049038;28;20041;-46
2024/02/27 08:23:43;;;;;;;13.13;7.18;;;;;;;9.32;66.12;102076.53;5049586;28;20041;-46
2024/02/27 08:26:09;;;;;;;16.30;7.40;;;;;;;9.37;66.00;102076.69;5032172;28;20040;-44
2024/02/27 08:28:34;;;;;;;13.07;6.50;;;;;;;9.38;66.88;102075.88;5049987;28;20044;-46
2024/02/27 08:31:03;;;;;;;15.30;7.13;;;;;;;9.34;66.99;102079.19;5048511;28;20033;-45
2024/02/27 08:33:29;;;;;;;12.93;6.60;;;;;;;9.44;66.53;102089.13;5049277;28;20029;-45
2024/02/27 08:35:55;;;;;;;12.68;6.80;;;;;;;9.60;66.62;102094.06;5031443;28;20029;-45
2024/02/27 08:38:20;;;;;;;13.85;6.55;;;;;;;9.58;66.75;102087.88;5048944;28;20025;-46
2024/02/27 08:40:45;;;;;;;13.93;6.10;;;;;;;9.63;65.89;102088.97;5047189;28;20051;-45
2024/02/27 08:43:14;;;;;;;14.40;6.72;;;;;;;9.40;65.93;102086.31;5052921;28;20025;-45
2024/02/27 08:45:39;;;;;;;11.98;6.28;;;;;;;9.83;64.64;102088.78;5052327;28;20044;-50
2024/02/27 08:48:05;;;;;;;14.45;6.13;;;;;;;9.63;64.00;102088.09;5053090;28;20548;-47
2024/02/27 08:50:30;;;;;;;11.15;6.10;;;;;;;9.64;63.84;102076.81;5052767;28;20036;-47
2024/02/27 08:52:55;;;;;;;12.88;5.95;;;;;;;9.69;63.36;102088.31;5052872;28;20067;-46
2024/02/27 08:55:24;;;;;;;12.30;6.20;;;;;;;9.74;63.49;102087.63;5053225;28;20067;-46
2024/02/27 08:57:50;;;;;;;12.85;6.30;;;;;;;10.23;61.78;102088.50;5051611;28;20398;-46
2024/02/27 09:00:16;;;;;;;14.68;6.25;;;;;;;9.85;62.50;102080.19;5053016;28;20120;-50
2024/02/27 09:02:42;;;;;;;14.48;6.38;;;;;;;10.23;61.96;102092.00;5052291;28;20029;-46
2024/02/27 09:05:08;;;;;;;13.02;6.50;;;;;;;10.69;60.38;102080.47;5052723;28;20368;-47
2024/02/27 09:07:33;;;;;;;13.07;6.25;;;;;;;10.53;61.30;102089.53;5052926;28;20029;-48
2024/02/27 09:09:58;;;;;;;13.32;6.35;;;;;;;10.30;60.70;102093.97;5052767;28;20058;-47
2024/02/27 09:12:25;;;;;;;13.27;6.38;;;;;;;9.71;61.59;102097.03;5052594;28;20036;-46
2024/02/27 09:14:50;;;;;;;12.00;6.32;;;;;;;9.78;62.35;102096.44;5052242;28;20079;-46
2024/02/27 09:17:16;;;;;;;13.40;6.00;;;;;;;10.03;61.64;102103.41;5051810;28;20495;-46
2024/02/27 09:19:41;;;;;;;11.57;6.22;;;;;;;10.39;59.66;102098.59;5052160;28;20059;-45
2024/02/27 09:22:06;;;;;;;11.02;6.60;;;;;;;10.46;59.43;102104.06;5052282;28;20029;-45
2024/02/27 09:24:31;;;;;;;11.70;6.55;;;;;;;10.08;60.35;102109.66;5052424;28;20057;-46
2024/02/27 09:26:57;;;;;;;11.88;6.40;;;;;;;10.61;59.22;102105.44;5051947;28;20031;-46
2024/02/27 09:29:22;;;;;;;12.80;6.60;;;;;;;10.56;59.41;102113.97;5052504;28;20071;-49
2024/02/27 09:31:47;;;;;;;11.73;6.53;;;;;;;10.88;58.42;102109.78;5051580;28;20391;-45
2024/02/27 09:34:13;;;;;;;13.40;7.00;;;;;;;10.73;58.43;102118.88;5053250;28;20437;-45
2024/02/27 09:36:39;;;;;;;12.80;6.43;;;;;;;10.78;58.49;102104.25;5053237;28;20033;-50
2024/02/27 09:39:04;;;;;;;12.70;7.00;;;;;;;10.75;58.26;102104.13;5052678;28;20037;-46
2024/02/27 09:41:53;;;;;;;13.80;6.53;;;;;;;10.82;57.04;102091.34;5051850;28;20037;-45
2024/02/27 09:44:19;;;;;;;10.90;6.47;;;;;;;10.79;57.87;102093.88;5051028;28;20029;-46
2024/02/27 09:46:46;;;;;;;14.15;7.00;;;;;;;10.88;57.08;102091.53;5033836;28;20083;-44
2024/02/27 09:49:13;;;;;;;17.00;7.88;;;;;;;10.83;57.50;102092.22;5052438;28;20021;-45
2024/02/27 09:51:41;;;;;;;15.15;7.30;;;;;;;10.84;56.78;102100.09;5051623;28;20095;-47
2024/02/27 09:54:08;;;;;;;11.85;6.82;;;;;;;11.19;55.89;102093.34;5051819;28;20033;-45
2024/02/27 09:56:33;;;;;;;12.40;7.30;;;;;;;11.40;56.22;102088.75;5052346;28;20029;-44
2024/02/27 09:58:59;;;;;;;13.85;7.82;;;;;;;11.43;56.58;102085.38;5052923;28;20135;-46
2024/02/27 10:01:28;;;;;;;14.57;7.50;;;;;;;11.35;57.05;102081.63;5052439;28;20551;-47
2024/02/27 10:03:54;;;;;;;13.32;7.65;;;;;;;11.25;57.37;102082.22;5052897;28;20071;-46
2024/02/27 10:06:21;;;;;;;14.82;7.90;;;;;;;10.75;58.46;102080.66;5053033;28;20029;-47
2024/02/27 10:08:51;;;;;;;13.32;7.28;;;;;;;11.30;57.34;102081.50;5051830;28;20480;-46
2024/02/27 10:11:18;;;;;;;13.77;7.35;;;;;;;11.48;57.20;102075.94;5051533;28;20080;-48
2024/02/27 10:13:43;;;;;;;12.93;7.32;;;;;;;11.48;57.65;102078.53;5052077;28;20083;-48
2024/02/27 10:16:11;;;;;;;15.98;7.90;;;;;;;11.35;56.81;102073.81;5052358;28;20083;-45
2024/02/27 10:18:36;;;;;;;14.10;7.68;;;;;;;11.56;57.87;102071.81;5052176;28;20434;-51
2024/02/27 10:21:03;;;;;;;13.45;7.28;;;;;;;11.77;56.58;102063.75;5051587;28;20040;-46
2024/02/27 10:23:28;;;;;;;15.57;7.07;;;;;;;11.82;55.89;102064.75;5052235;28;20029;-48
2024/02/27 10:26:06;;;;;;;13.60;7.00;;;;;;;11.83;55.42;102058.69;5051569;28;20033;-49
2024/02/27 10:28:33;;;;;;;10.93;6.70;;;;;;;11.45;55.51;102064.53;5052355;28;20055;-48
2024/02/27 10:30:58;;;;;;;12.30;6.68;;;;;;;11.79;54.03;102060.31;5050595;28;20134;-46
2024/02/27 10:33:24;;;;;;;11.82;6.30;;;;;;;11.43;53.87;102056.63;5051581;28;20071;-48
2024/02/27 10:35:52;;;;;;;10.63;6.18;;;;;;;11.12;55.45;102061.81;5050939;28;20024;-47
2024/02/27 10:38:22;;;;;;;12.13;6.10;;;;;;;11.55;55.23;102059.59;5051944;28;20033;-50
2024/02/27 10:40:48;;;;;;;9.63;5.40;;;;;;;11.63;55.31;102068.53;5050329;28;20223;-48
2024/02/27 10:43:13;;;;;;;8.25;5.20;;;;;;;11.34;54.70;102072.06;5051906;28;20025;-48
2024/02/27 10:45:42;;;;;;;9.48;5.22;;;;;;;11.61;53.98;102077.16;5051154;28;20098;-48
2024/02/27 10:48:08;;;;;;;10.57;4.72;;;;;;;11.25;55.40;102069.16;5051111;28;20047;-49
2024/02/27 10:50:35;;;;;;;8.60;4.80;;;;;;;11.56;54.87;102071.81;5050360;28;20032;-47
2024/02/27 10:53:02;;;;;;;9.55;5.32;;;;;;;11.34;54.60;102067.69;5050173;28;20116;-46
2024/02/27 10:55:29;;;;;;;9.73;5.32;;;;;;;11.05;56.08;102073.78;5051349;28;20021;-46
2024/02/27 10:57:59;;;;;;;10.25;5.40;;;;;;;11.36;55.94;102072.97;5032859;28;20586;-47
2024/02/27 11:00:25;;;;;;;12.45;5.10;;;;;;;11.55;56.56;102079.59;5052451;28;20025;-48
2024/02/27 11:02:54;;;;;;;10.10;5.07;;;;;;;12.01;54.67;102079.19;5054416;28;20029;-47
2024/02/27 11:05:21;;;;;;;7.93;4.57;;;;;;;11.71;54.71;102077.47;5052925;28;20064;-46
2024/02/27 11:07:47;;;;;;;8.85;4.95;;;;;;;11.75;54.51;102075.88;5036492;28;20029;-47
2024/02/27 11:10:15;;;;;;;9.23;4.82;;;;;;;11.70;53.94;102082.66;5054037;28;20029;-50
2024/02/27 11:12:43;;;;;;;9.15;5.30;;;;;;;11.59;55.62;102084.06;5051620;28;20033;-47
2024/02/27 11:15:09;;;;;;;8.57;5.10;;;;;;;11.78;54.99;102075.94;5051166;28;20064;-46
2024/02/27 11:17:43;;;;;;;8.55;4.97;;;;;;;11.77;54.80;102075.06;5051858;28;20036;-46
2024/02/27 11:20:11;;;;;;;8.38;4.80;;;;;;;11.86;55.21;102079.66;5051770;28;20036;-44
2024/02/27 11:22:39;;;;;;;7.85;4.93;;;;;;;11.81;55.60;102083.00;5050814;28;20530;-45